createdAt,value
2023-04-03T00:00:15.199Z,25.53
2023-04-03T00:02:15.255Z,25.52
2023-04-03T00:04:15.328Z,25.53
2023-04-03T00:06:15.206Z,25.52
2023-04-03T00:08:15.057Z,25.54
2023-04-03T00:10:15.096Z,25.54
2023-04-03T00:12:15.216Z,25.65
2023-04-03T00:14:15.230Z,25.57
2023-04-03T00:16:15.222Z,25.57
2023-04-03T00:18:15.217Z,25.65
2023-04-03T00:20:15.188Z,25.65
2023-04-03T00:22:15.226Z,25.60
2023-04-03T00:24:15.111Z,25.57
2023-04-03T00:26:15.147Z,25.58
2023-04-03T00:28:15.220Z,25.65
2023-04-03T00:30:15.139Z,25.63
2023-04-03T00:32:15.200Z,25.65
2023-04-03T00:34:15.270Z,25.65
2023-04-03T00:36:15.313Z,25.65
2023-04-03T00:38:15.169Z,25.63
2023-04-03T00:40:15.235Z,25.72
2023-04-03T00:42:15.248Z,25.64
2023-04-03T00:44:15.303Z,25.64
2023-04-03T00:46:15.207Z,25.65
2023-04-03T00:48:15.331Z,25.62
2023-04-03T00:50:15.145Z,25.65
2023-04-03T00:52:15.236Z,25.63
2023-04-03T00:54:15.303Z,25.61
2023-04-03T00:56:15.304Z,25.60
2023-04-03T00:58:15.289Z,25.62
2023-04-03T01:00:15.152Z,25.63
2023-04-03T01:02:15.346Z,25.64
2023-04-03T01:04:15.261Z,25.64
2023-04-03T01:06:15.232Z,25.61
2023-04-03T01:08:15.194Z,25.75
2023-04-03T01:10:15.262Z,25.60
2023-04-03T01:12:15.232Z,25.61
2023-04-03T01:14:15.309Z,25.58
2023-04-03T01:16:15.316Z,25.64
2023-04-03T01:18:15.212Z,25.60
2023-04-03T01:20:15.275Z,25.60
2023-04-03T01:22:15.317Z,25.72
2023-04-03T01:24:15.261Z,25.60
2023-04-03T01:26:15.287Z,25.61
2023-04-03T01:28:15.264Z,25.63
2023-04-03T01:30:15.278Z,25.75
2023-04-03T01:32:15.238Z,25.60
2023-04-03T01:34:15.245Z,25.74
2023-04-03T01:36:15.267Z,25.71
2023-04-03T01:38:15.298Z,25.60
2023-04-03T01:40:15.291Z,25.61
2023-04-03T01:42:15.269Z,25.71
2023-04-03T01:44:15.319Z,25.60
2023-04-03T01:46:15.356Z,25.65
2023-04-03T01:48:15.331Z,25.60
2023-04-03T01:50:15.342Z,25.52
2023-04-03T01:52:15.338Z,25.61
2023-04-03T01:54:15.356Z,25.58
2023-04-03T01:56:15.219Z,25.60
2023-04-03T01:58:15.314Z,25.64
2023-04-03T02:00:15.346Z,24.71
2023-04-03T02:02:15.364Z,24.43
2023-04-03T02:04:15.409Z,24.33
2023-04-03T02:06:15.362Z,24.10
2023-04-03T02:08:15.295Z,24.06
2023-04-03T02:10:15.356Z,24.07
2023-04-03T02:12:15.376Z,23.91
2023-04-03T02:14:15.325Z,23.89
2023-04-03T02:16:15.434Z,23.86
2023-04-03T02:18:15.405Z,23.91
2023-04-03T02:20:15.365Z,23.89
2023-04-03T02:22:15.353Z,23.81
2023-04-03T02:24:15.371Z,23.86
2023-04-03T02:26:15.361Z,23.88
2023-04-03T02:28:15.166Z,23.84
2023-04-03T02:30:15.245Z,23.84
2023-04-03T02:32:15.382Z,23.83
2023-04-03T02:34:15.236Z,23.81
2023-04-03T02:36:15.440Z,23.81
2023-04-03T02:38:15.381Z,23.82
2023-04-03T02:40:15.334Z,23.79
2023-04-03T02:42:15.342Z,23.86
2023-04-03T02:44:15.317Z,23.79
2023-04-03T02:46:15.385Z,23.78
2023-04-03T02:48:15.304Z,23.73
2023-04-03T02:50:15.350Z,23.77
2023-04-03T02:52:15.371Z,23.81
2023-04-03T02:54:15.405Z,23.77
2023-04-03T02:56:15.318Z,23.77
2023-04-03T02:58:15.316Z,23.73
2023-04-03T03:00:15.388Z,23.72
2023-04-03T03:02:15.438Z,23.72
2023-04-03T03:04:15.289Z,23.81
2023-04-03T03:06:15.221Z,23.70
2023-04-03T03:08:15.436Z,23.75
2023-04-03T03:10:15.431Z,23.73
2023-04-03T03:12:15.482Z,23.72
2023-04-03T03:14:15.301Z,23.73
2023-04-03T03:16:15.369Z,23.70
2023-04-03T03:18:15.418Z,23.70
2023-04-03T03:20:15.481Z,23.66
2023-04-03T03:22:15.476Z,23.73
2023-04-03T03:24:15.381Z,23.79
2023-04-03T03:26:15.375Z,23.72
2023-04-03T03:28:15.439Z,23.68
2023-04-03T03:30:15.452Z,23.65
2023-04-03T03:32:15.426Z,23.57
2023-04-03T03:34:15.453Z,23.54
2023-04-03T03:36:15.432Z,23.53
2023-04-03T03:38:15.425Z,23.53
2023-04-03T03:40:15.430Z,23.50
2023-04-03T03:42:15.439Z,23.49
2023-04-03T03:44:15.933Z,23.48
2023-04-03T03:46:15.281Z,23.52
2023-04-03T03:48:15.496Z,23.49
2023-04-03T03:50:15.388Z,23.50
2023-04-03T03:52:15.431Z,23.50
2023-04-03T03:54:15.412Z,23.49
2023-04-03T03:56:15.409Z,23.44
2023-04-03T03:58:15.374Z,23.53
2023-04-03T04:00:15.410Z,23.29
2023-04-03T04:02:15.491Z,23.27
2023-04-03T04:04:15.474Z,23.25
2023-04-03T04:06:15.476Z,23.22
2023-04-03T04:08:15.455Z,23.02
2023-04-03T04:10:15.367Z,23.20
2023-04-03T04:12:15.350Z,23.25
2023-04-03T04:14:15.476Z,23.08
2023-04-03T04:16:15.511Z,23.05
2023-04-03T04:18:15.403Z,23.20
2023-04-03T04:20:15.428Z,23.11
2023-04-03T04:22:15.358Z,23.21
2023-04-03T04:24:15.512Z,22.98
2023-04-03T04:26:15.610Z,23.04
2023-04-03T04:28:15.510Z,23.19
2023-04-03T04:30:15.481Z,23.22
2023-04-03T04:32:15.487Z,23.30
2023-04-03T04:34:15.445Z,23.30
2023-04-03T04:36:15.598Z,23.36
2023-04-03T04:38:15.379Z,23.30
2023-04-03T04:40:15.596Z,23.29
2023-04-03T04:42:17.442Z,23.29
2023-04-03T04:44:15.548Z,23.26
2023-04-03T04:46:15.513Z,23.27
2023-04-03T04:48:15.551Z,23.28
2023-04-03T04:50:15.563Z,23.32
2023-04-03T04:52:15.598Z,23.33
2023-04-03T04:54:15.547Z,23.30
2023-04-03T04:56:15.480Z,23.30
2023-04-03T04:58:15.491Z,23.34
2023-04-03T05:00:15.442Z,23.26
2023-04-03T05:02:15.553Z,23.27
2023-04-03T05:04:15.537Z,23.26
2023-04-03T05:06:15.453Z,23.30
2023-04-03T05:08:15.520Z,23.25
2023-04-03T05:10:15.525Z,23.25
2023-04-03T05:12:15.523Z,23.25
2023-04-03T05:14:15.458Z,23.25
2023-04-03T05:16:15.558Z,23.25
2023-04-03T05:18:15.544Z,23.29
2023-04-03T05:20:15.516Z,23.31
2023-04-03T05:22:15.533Z,23.31
2023-04-03T05:24:15.593Z,23.37
2023-04-03T05:26:15.620Z,23.38
2023-04-03T05:28:15.558Z,23.37
2023-04-03T05:30:15.472Z,23.31
2023-04-03T05:32:15.479Z,23.37
2023-04-03T05:34:15.408Z,23.36
2023-04-03T05:36:15.467Z,23.47
2023-04-03T05:38:15.512Z,23.38
2023-04-03T05:40:16.844Z,23.51
2023-04-03T05:42:15.550Z,23.40
2023-04-03T05:44:15.611Z,23.44
2023-04-03T05:46:15.624Z,23.45
2023-04-03T05:48:15.559Z,23.48
2023-04-03T05:50:15.636Z,23.54
2023-04-03T05:52:15.458Z,23.47
2023-04-03T05:54:15.532Z,23.49
2023-04-03T05:56:15.567Z,23.53
2023-04-03T05:58:15.599Z,23.53
2023-04-03T06:00:15.597Z,23.54
2023-04-03T06:02:15.630Z,23.56
2023-04-03T06:04:15.679Z,23.59
2023-04-03T06:06:15.584Z,23.67
2023-04-03T06:08:15.594Z,23.73
2023-04-03T06:10:15.559Z,23.75
2023-04-03T06:12:15.577Z,23.79
2023-04-03T06:14:15.614Z,23.81
2023-04-03T06:16:15.567Z,23.88
2023-04-03T06:18:15.570Z,23.96
2023-04-03T06:20:15.581Z,24.07
2023-04-03T06:22:15.552Z,24.10
2023-04-03T06:24:15.540Z,24.10
2023-04-03T06:26:15.614Z,24.25
2023-04-03T06:28:15.567Z,24.33
2023-04-03T06:30:15.617Z,24.37
2023-04-03T06:32:15.669Z,24.50
2023-04-03T06:34:15.911Z,24.55
2023-04-03T06:36:15.589Z,24.69
2023-04-03T06:38:15.657Z,24.76
2023-04-03T06:40:15.612Z,24.85
2023-04-03T06:42:15.632Z,24.85
2023-04-03T06:44:15.609Z,24.87
2023-04-03T06:46:15.672Z,24.87
2023-04-03T06:48:15.680Z,24.90
2023-04-03T06:50:15.730Z,24.95
2023-04-03T06:52:15.565Z,24.98
2023-04-03T06:54:15.669Z,24.94
2023-04-03T06:56:15.608Z,25.00
2023-04-03T06:58:15.587Z,25.19
2023-04-03T07:00:15.646Z,25.14
2023-04-03T07:02:15.599Z,25.21
2023-04-03T07:04:15.725Z,25.19
2023-04-03T07:06:15.619Z,25.23
2023-04-03T07:08:15.506Z,25.23
2023-04-03T07:10:15.626Z,25.28
2023-04-03T07:12:15.664Z,25.42
2023-04-03T07:14:15.678Z,25.43
2023-04-03T07:16:15.714Z,25.60
2023-04-03T07:18:15.594Z,25.84
2023-04-03T07:20:15.650Z,25.97
2023-04-03T07:22:15.677Z,26.23
2023-04-03T07:24:16.746Z,26.46
2023-04-03T07:26:15.662Z,25.80
2023-04-03T07:28:15.650Z,25.06
2023-04-03T07:30:15.667Z,25.05
2023-04-03T07:32:15.679Z,25.12
2023-04-03T07:34:15.707Z,25.05
2023-04-03T07:36:15.720Z,25.13
2023-04-03T07:38:15.670Z,25.11
2023-04-03T07:40:15.701Z,25.12
2023-04-03T07:42:15.658Z,25.22
2023-04-03T07:44:15.704Z,25.29
2023-04-03T07:46:15.761Z,25.25
2023-04-03T07:48:15.529Z,25.26
2023-04-03T07:50:15.576Z,25.29
2023-04-03T07:52:15.666Z,25.31
2023-04-03T07:54:15.659Z,25.60
2023-04-03T07:56:15.662Z,25.33
2023-04-03T07:58:15.662Z,25.43
2023-04-03T08:00:15.659Z,25.50
2023-04-03T08:02:15.737Z,25.44
2023-04-03T08:04:15.818Z,25.47
2023-04-03T08:06:16.550Z,25.47
2023-04-03T08:08:15.732Z,25.51
2023-04-03T08:10:15.685Z,25.47
2023-04-03T08:12:15.661Z,25.54
2023-04-03T08:14:15.714Z,25.49
2023-04-03T08:16:15.727Z,25.51
2023-04-03T08:18:15.661Z,25.45
2023-04-03T08:20:15.736Z,25.50
2023-04-03T08:22:15.637Z,25.46
2023-04-03T08:24:15.702Z,25.11
2023-04-03T08:26:15.748Z,26.96
2023-04-03T08:28:15.646Z,25.12
2023-04-03T08:30:15.716Z,25.05
2023-04-03T08:32:15.704Z,25.23
2023-04-03T08:34:15.858Z,25.31
2023-04-03T08:36:15.826Z,25.21
2023-04-03T08:38:15.650Z,25.18
2023-04-03T08:40:15.742Z,25.29
2023-04-03T08:42:15.746Z,25.06
2023-04-03T08:44:15.737Z,25.21
2023-04-03T08:46:15.701Z,25.23
2023-04-03T08:48:15.809Z,25.22
2023-04-03T08:50:15.704Z,25.23
2023-04-03T08:52:15.772Z,25.25
2023-04-03T08:54:15.736Z,25.27
2023-04-03T08:56:15.786Z,27.01
2023-04-03T08:58:15.825Z,25.17
2023-04-03T09:00:15.736Z,25.05
2023-04-03T09:02:15.780Z,25.61
2023-04-03T09:04:15.879Z,25.09
2023-04-03T09:06:15.778Z,25.92
2023-04-03T09:08:15.793Z,25.09
2023-04-03T09:10:15.731Z,25.12
2023-04-03T09:12:15.680Z,25.10
2023-04-03T09:14:15.728Z,25.17
2023-04-03T09:16:15.786Z,25.19
2023-04-03T09:18:15.765Z,25.15
2023-04-03T09:20:16.729Z,25.25
2023-04-03T09:22:15.805Z,25.24
2023-04-03T09:24:15.699Z,25.13
2023-04-03T09:26:15.823Z,26.99
2023-04-03T09:28:15.743Z,25.12
2023-04-03T09:30:15.809Z,25.03
2023-04-03T09:32:15.727Z,27.03
2023-04-03T09:34:15.781Z,25.37
2023-04-03T09:36:15.839Z,25.24
2023-04-03T09:38:15.812Z,25.23
2023-04-03T09:40:15.799Z,25.19
2023-04-03T09:42:15.847Z,25.17
2023-04-03T09:44:15.731Z,25.18
2023-04-03T09:46:15.856Z,25.19
2023-04-03T09:48:16.697Z,25.11
2023-04-03T09:50:15.869Z,25.21
2023-04-03T09:52:17.447Z,25.17
2023-04-03T09:54:15.709Z,25.25
2023-04-03T09:56:15.833Z,25.23
2023-04-03T09:58:15.828Z,25.35
2023-04-03T10:00:15.845Z,25.78
2023-04-03T10:02:15.826Z,26.80
2023-04-03T10:04:15.890Z,25.92
2023-04-03T10:06:15.848Z,25.19
2023-04-03T10:08:15.872Z,25.15
2023-04-03T10:10:15.912Z,25.09
2023-04-03T10:12:15.821Z,25.14
2023-04-03T10:14:15.843Z,25.26
2023-04-03T10:16:15.828Z,25.32
2023-04-03T10:18:24.239Z,25.43
2023-04-03T10:20:15.771Z,25.21
2023-04-03T10:22:15.873Z,25.22
2023-04-03T10:24:15.770Z,25.21
2023-04-03T10:26:15.911Z,26.93
2023-04-03T10:28:15.924Z,25.13
2023-04-03T10:30:15.901Z,25.07
2023-04-03T10:32:15.892Z,26.99
2023-04-03T10:34:15.817Z,25.01
2023-04-03T10:36:15.731Z,25.08
2023-04-03T10:38:15.769Z,25.17
2023-04-03T10:40:15.887Z,25.09
2023-04-03T10:42:17.743Z,25.12
2023-04-03T10:44:15.802Z,25.13
2023-04-03T10:46:15.842Z,25.12
2023-04-03T10:48:15.879Z,25.13
2023-04-03T10:50:15.802Z,26.64
2023-04-03T10:52:15.930Z,27.06
2023-04-03T10:54:15.901Z,25.92
2023-04-03T10:56:15.899Z,26.96
2023-04-03T10:58:15.852Z,25.11
2023-04-03T11:00:15.818Z,25.13
2023-04-03T11:02:15.893Z,25.07
2023-04-03T11:04:15.849Z,25.25
2023-04-03T11:06:15.938Z,25.19
2023-04-03T11:08:15.867Z,25.15
2023-04-03T11:10:16.011Z,25.11
2023-04-03T11:12:15.883Z,26.46
2023-04-03T11:14:15.854Z,25.93
2023-04-03T11:16:15.998Z,25.04
2023-04-03T11:18:15.933Z,25.14
2023-04-03T11:20:15.874Z,26.10
2023-04-03T11:22:15.989Z,26.32
2023-04-03T11:24:15.905Z,25.07
2023-04-03T11:26:15.929Z,25.12
2023-04-03T11:28:15.876Z,25.12
2023-04-03T11:30:15.839Z,25.09
2023-04-03T11:32:15.938Z,25.10
2023-04-03T11:34:15.849Z,25.12
2023-04-03T11:36:26.152Z,25.13
2023-04-03T11:38:15.911Z,25.08
2023-04-03T11:40:15.951Z,25.13
2023-04-03T11:42:15.929Z,25.27
2023-04-03T11:44:15.969Z,25.21
2023-04-03T11:46:15.954Z,25.23
2023-04-03T11:48:24.511Z,25.23
2023-04-03T11:50:15.965Z,25.31
2023-04-03T11:52:15.940Z,25.36
2023-04-03T11:54:15.946Z,25.10
2023-04-03T11:56:16.035Z,25.10
2023-04-03T11:58:15.938Z,25.14
2023-04-03T12:00:15.928Z,25.08
2023-04-03T12:02:15.960Z,26.84
2023-04-03T12:04:16.053Z,25.14
2023-04-03T12:06:16.019Z,26.76
2023-04-03T12:08:15.968Z,26.61
2023-04-03T12:10:24.806Z,25.53
2023-04-03T12:12:15.955Z,25.26
2023-04-03T12:14:15.924Z,25.32
2023-04-03T12:16:16.031Z,25.23
2023-04-03T12:18:15.932Z,25.22
2023-04-03T12:20:15.972Z,26.82
2023-04-03T12:22:15.993Z,25.02
2023-04-03T12:24:16.019Z,25.14
2023-04-03T12:26:15.947Z,26.93
2023-04-03T12:28:16.033Z,26.00
2023-04-03T12:30:15.964Z,25.08
2023-04-03T12:32:15.991Z,25.12
2023-04-03T12:34:15.960Z,25.20
2023-04-03T12:36:16.020Z,25.43
2023-04-03T12:38:15.929Z,25.37
2023-04-03T12:40:16.004Z,25.32
2023-04-03T12:42:15.966Z,25.28
2023-04-03T12:44:16.014Z,27.06
2023-04-03T12:46:16.074Z,25.91
2023-04-03T12:48:16.000Z,25.23
2023-04-03T12:50:15.985Z,25.08
2023-04-03T12:52:15.990Z,25.47
2023-04-03T12:54:16.047Z,25.37
2023-04-03T12:56:15.895Z,25.31
2023-04-03T12:58:15.979Z,25.32
2023-04-03T13:00:16.021Z,25.22
2023-04-03T13:02:15.823Z,27.02
2023-04-03T13:04:15.914Z,27.05
2023-04-03T13:06:15.994Z,26.56
2023-04-03T13:08:15.961Z,25.05
2023-04-03T13:10:15.943Z,25.24
2023-04-03T13:12:16.008Z,26.99
2023-04-03T13:14:15.897Z,26.99
2023-04-03T13:16:15.964Z,25.34
2023-04-03T13:18:15.980Z,25.44
2023-04-03T13:20:15.970Z,25.06
2023-04-03T13:22:16.035Z,25.11
2023-04-03T13:24:16.097Z,25.47
2023-04-03T13:26:15.999Z,25.28
2023-04-03T13:28:16.078Z,25.22
2023-04-03T13:30:16.051Z,25.18
2023-04-03T13:32:15.984Z,25.32
2023-04-03T13:34:16.056Z,26.87
2023-04-03T13:36:16.085Z,25.08
2023-04-03T13:38:16.045Z,25.40
2023-04-03T13:40:15.860Z,27.09
2023-04-03T13:42:16.011Z,25.56
2023-04-03T13:44:16.007Z,25.10
2023-04-03T13:46:16.067Z,25.06
2023-04-03T13:48:22.687Z,25.09
2023-04-03T13:50:16.151Z,25.12
2023-04-03T13:52:15.970Z,25.11
2023-04-03T13:54:16.031Z,25.15
2023-04-03T13:56:16.107Z,25.08
2023-04-03T13:58:16.121Z,26.98
2023-04-03T14:00:16.105Z,24.99
2023-04-03T14:02:16.021Z,25.43
2023-04-03T14:04:16.067Z,25.33
2023-04-03T14:06:15.993Z,27.08
2023-04-03T14:08:15.992Z,25.47
2023-04-03T14:10:16.064Z,25.15
2023-04-03T14:12:30.105Z,25.15
2023-04-03T14:14:16.054Z,25.29
2023-04-03T14:16:16.392Z,25.31
2023-04-03T14:18:16.132Z,27.02
2023-04-03T14:20:16.062Z,27.07
2023-04-03T14:22:16.112Z,25.06
2023-04-03T14:24:15.929Z,25.23
2023-04-03T14:26:16.109Z,27.08
2023-04-03T14:28:16.088Z,25.12
2023-04-03T14:30:16.091Z,25.05
2023-04-03T14:32:16.168Z,25.08
2023-04-03T14:34:16.064Z,27.07
2023-04-03T14:36:16.190Z,27.07
2023-04-03T14:38:16.114Z,25.89
2023-04-03T14:40:16.030Z,25.15
2023-04-03T14:42:16.096Z,25.46
2023-04-03T14:44:16.099Z,25.46
2023-04-03T14:46:16.176Z,25.46
2023-04-03T14:48:16.217Z,25.50
2023-04-03T14:50:16.177Z,24.94
2023-04-03T14:52:16.112Z,27.08
2023-04-03T14:54:16.118Z,25.10
2023-04-03T14:56:16.107Z,26.93
2023-04-03T14:58:16.099Z,25.08
2023-04-03T15:00:16.125Z,25.27
2023-04-03T15:02:16.174Z,25.13
2023-04-03T15:04:16.339Z,25.28
2023-04-03T15:06:16.132Z,25.42
2023-04-03T15:08:16.449Z,27.16
2023-04-03T15:10:16.141Z,26.30
2023-04-03T15:12:16.236Z,25.21
2023-04-03T15:14:24.326Z,25.12
2023-04-03T15:16:16.113Z,26.87
2023-04-03T15:18:16.102Z,25.19
2023-04-03T15:20:16.159Z,25.19
2023-04-03T15:22:16.158Z,25.23
2023-04-03T15:24:16.108Z,25.23
2023-04-03T15:26:16.187Z,26.91
2023-04-03T15:28:16.161Z,25.95
2023-04-03T15:30:16.042Z,24.96
2023-04-03T15:32:16.257Z,25.12
2023-04-03T15:34:16.242Z,25.40
2023-04-03T15:38:16.188Z,25.03
2023-04-03T15:40:16.220Z,25.37
2023-04-03T15:42:16.131Z,25.23
2023-04-03T15:44:16.118Z,26.39
2023-04-03T15:46:16.036Z,25.21
2023-04-03T15:48:16.255Z,25.56
2023-04-03T15:50:16.160Z,25.23
2023-04-03T15:52:15.993Z,25.23
2023-04-03T15:54:16.124Z,25.18
2023-04-03T15:56:16.188Z,25.22
2023-04-03T15:58:16.169Z,25.19
2023-04-03T16:00:16.138Z,24.80
2023-04-03T16:02:16.251Z,24.39
2023-04-03T16:04:16.739Z,23.95
2023-04-03T16:06:16.130Z,24.12
2023-04-03T16:08:16.225Z,24.23
2023-04-03T16:10:16.208Z,24.23
2023-04-03T16:12:16.226Z,24.20
2023-04-03T16:14:16.271Z,23.42
2023-04-03T16:16:16.431Z,24.25
2023-04-03T16:18:16.230Z,24.30
2023-04-03T16:20:16.287Z,24.32
2023-04-03T16:22:16.175Z,24.15
2023-04-03T16:24:18.360Z,24.20
2023-04-03T16:26:16.257Z,23.68
2023-04-03T16:28:16.171Z,23.54
2023-04-03T16:30:16.153Z,23.84
2023-04-03T16:32:16.220Z,23.96
2023-04-03T16:34:16.181Z,24.01
2023-04-03T16:36:16.266Z,24.07
2023-04-03T16:38:16.246Z,23.98
2023-04-03T16:40:16.135Z,24.09
2023-04-03T16:42:16.279Z,23.97
2023-04-03T16:44:16.257Z,24.04
2023-04-03T16:46:16.395Z,24.03
2023-04-03T16:48:16.338Z,24.04
2023-04-03T16:50:16.145Z,23.56
2023-04-03T16:52:16.242Z,23.51
2023-04-03T16:54:16.298Z,23.70
2023-04-03T16:56:16.638Z,23.84
2023-04-03T16:58:16.222Z,23.90
2023-04-03T17:00:16.266Z,23.88
2023-04-03T17:02:16.237Z,23.93
2023-04-03T17:04:16.345Z,23.52
2023-04-03T17:06:16.183Z,23.49
2023-04-03T17:08:16.266Z,23.67
2023-04-03T17:10:16.258Z,23.76
2023-04-03T17:12:16.348Z,23.69
2023-04-03T17:14:16.281Z,23.80
2023-04-03T17:16:16.318Z,23.75
2023-04-03T17:18:16.301Z,23.80
2023-04-03T17:20:16.246Z,23.75
2023-04-03T17:22:16.223Z,23.76
2023-04-03T17:24:16.398Z,23.80
2023-04-03T17:26:16.272Z,23.71
2023-04-03T17:28:16.121Z,23.76
2023-04-03T17:30:16.196Z,23.73
2023-04-03T17:32:16.336Z,23.81
2023-04-03T17:34:16.292Z,23.73
2023-04-03T17:36:16.256Z,23.69
2023-04-03T17:38:16.376Z,23.65
2023-04-03T17:40:16.353Z,23.69
2023-04-03T17:42:16.274Z,23.70
2023-04-03T17:44:16.258Z,23.79
2023-04-03T17:46:16.341Z,23.63
2023-04-03T17:48:16.253Z,23.65
2023-04-03T17:50:16.153Z,23.63
2023-04-03T17:52:16.312Z,23.65
2023-04-03T17:54:16.230Z,23.65
2023-04-03T17:56:16.306Z,23.59
2023-04-03T17:58:16.420Z,23.65
2023-04-03T18:00:16.353Z,23.77
2023-04-03T18:02:16.284Z,23.76
2023-04-03T18:04:16.307Z,23.80
2023-04-03T18:06:16.326Z,23.81
2023-04-03T18:08:16.278Z,23.84
2023-04-03T18:10:16.285Z,23.85
2023-04-03T18:12:16.431Z,23.83
2023-04-03T18:14:16.294Z,23.81
2023-04-03T18:16:16.368Z,23.81
2023-04-03T18:18:16.391Z,23.84
2023-04-03T18:20:16.355Z,23.82
2023-04-03T18:22:16.254Z,23.84
2023-04-03T18:24:16.304Z,23.84
2023-04-03T18:26:18.195Z,26.28
2023-04-03T18:28:16.597Z,27.09
2023-04-03T18:30:16.352Z,27.24
2023-04-03T18:32:16.268Z,27.30
2023-04-03T18:34:16.415Z,27.22
2023-04-03T18:38:16.416Z,27.28
2023-04-03T18:40:16.296Z,25.94
2023-04-03T18:42:16.361Z,25.60
2023-04-03T18:44:16.341Z,25.59
2023-04-03T18:46:16.345Z,25.54
2023-04-03T18:48:16.299Z,25.58
2023-04-03T18:50:16.375Z,25.65
2023-04-03T18:52:16.293Z,25.58
2023-04-03T18:54:16.487Z,25.55
2023-04-03T18:56:16.380Z,25.52
2023-04-03T18:58:16.358Z,25.64
2023-04-03T19:00:16.373Z,25.56
2023-04-03T19:02:16.417Z,25.54
2023-04-03T19:04:16.294Z,25.57
2023-04-03T19:06:16.557Z,25.65
2023-04-03T19:08:16.382Z,25.60
2023-04-03T19:10:16.374Z,25.75
2023-04-03T19:12:16.431Z,25.75
2023-04-03T19:14:17.189Z,25.61
2023-04-03T19:16:16.774Z,25.61
2023-04-03T19:18:16.348Z,25.65
2023-04-03T19:20:16.440Z,25.53
2023-04-03T19:22:16.413Z,25.75
2023-04-03T19:24:16.340Z,25.61
2023-04-03T19:26:16.472Z,25.60
2023-04-03T19:28:16.431Z,25.60
2023-04-03T19:30:16.472Z,25.61
2023-04-03T19:32:16.483Z,25.61
2023-04-03T19:34:16.359Z,25.65
2023-04-03T19:36:16.717Z,25.50
2023-04-03T19:38:16.443Z,25.63
2023-04-03T19:40:16.395Z,25.60
2023-04-03T19:42:16.394Z,25.63
2023-04-03T19:44:16.465Z,25.74
2023-04-03T19:46:16.479Z,25.63
2023-04-03T19:48:16.328Z,25.65
2023-04-03T19:50:16.475Z,25.72
2023-04-03T19:52:16.544Z,25.60
2023-04-03T19:54:16.527Z,25.61
2023-04-03T19:56:16.341Z,25.65
2023-04-03T19:58:16.443Z,25.60
2023-04-03T20:00:16.480Z,25.61
2023-04-03T20:02:16.437Z,25.60
2023-04-03T20:04:16.560Z,25.74
2023-04-03T20:06:16.502Z,25.62
2023-04-03T20:08:16.493Z,25.65
2023-04-03T20:10:16.526Z,25.60
2023-04-03T20:12:16.564Z,25.61
2023-04-03T20:14:16.514Z,25.52
2023-04-03T20:16:16.416Z,25.53
2023-04-03T20:18:16.489Z,25.65
2023-04-03T20:20:16.531Z,25.58
2023-04-03T20:22:16.371Z,25.61
2023-04-03T20:24:17.246Z,25.60
2023-04-03T20:26:16.357Z,25.65
2023-04-03T20:28:16.413Z,25.60
2023-04-03T20:30:16.581Z,25.65
2023-04-03T20:32:16.453Z,25.75
2023-04-03T20:34:16.328Z,25.64
2023-04-03T20:36:16.466Z,25.63
2023-04-03T20:38:16.319Z,25.65
2023-04-03T20:40:16.466Z,25.60
2023-04-03T20:42:16.488Z,25.61
2023-04-03T20:44:16.421Z,25.58
2023-04-03T20:46:16.521Z,25.60
2023-04-03T20:48:16.657Z,25.65
2023-04-03T20:50:16.537Z,25.60
2023-04-03T20:52:16.507Z,25.64
2023-04-03T20:54:16.531Z,25.64
2023-04-03T20:56:16.463Z,25.61
2023-04-03T20:58:17.784Z,25.65
2023-04-03T21:00:16.445Z,25.61
2023-04-03T21:02:16.492Z,25.60
2023-04-03T21:04:16.587Z,25.60
2023-04-03T21:06:16.478Z,25.58
2023-04-03T21:08:16.534Z,25.56
2023-04-03T21:10:16.530Z,25.54
2023-04-03T21:12:16.465Z,25.60
2023-04-03T21:14:16.428Z,25.57
2023-04-03T21:16:16.630Z,25.58
2023-04-03T21:18:16.365Z,25.62
2023-04-03T21:20:16.547Z,25.58
2023-04-03T21:22:16.522Z,25.56
2023-04-03T21:24:16.519Z,25.63
2023-04-03T21:26:16.543Z,25.42
2023-04-03T21:28:16.379Z,25.56
2023-04-03T21:30:16.533Z,25.60
2023-04-03T21:32:16.565Z,25.65
2023-04-03T21:34:16.509Z,25.55
2023-04-03T21:36:16.541Z,25.64
2023-04-03T21:38:16.550Z,25.61
2023-04-03T21:40:16.497Z,25.59
2023-04-03T21:42:16.529Z,25.62
2023-04-03T21:44:16.504Z,25.60
2023-04-03T21:46:16.589Z,25.63
2023-04-03T21:48:16.582Z,25.62
2023-04-03T21:50:16.473Z,25.61
2023-04-03T21:52:16.506Z,25.56
2023-04-03T21:54:16.554Z,25.57
2023-04-03T21:56:16.547Z,25.61
2023-04-03T21:58:16.559Z,25.65
2023-04-03T22:00:16.655Z,25.65
2023-04-03T22:02:16.487Z,25.57
2023-04-03T22:04:16.534Z,25.57
2023-04-03T22:06:16.526Z,25.63
2023-04-03T22:08:16.509Z,25.65
2023-04-03T22:10:16.564Z,25.61
2023-04-03T22:12:16.556Z,25.65
2023-04-03T22:14:16.392Z,25.65
2023-04-03T22:16:16.676Z,25.61
2023-04-03T22:18:16.542Z,25.65
2023-04-03T22:20:16.580Z,25.61
2023-04-03T22:22:16.564Z,25.31
2023-04-03T22:24:16.535Z,25.74
2023-04-03T22:26:16.480Z,25.63
2023-04-03T22:28:16.588Z,25.61
2023-04-03T22:30:16.605Z,25.64
2023-04-03T22:32:16.661Z,25.62
2023-04-03T22:34:16.517Z,25.38
2023-04-03T22:36:16.702Z,25.58
2023-04-03T22:38:16.608Z,25.61
2023-04-03T22:40:16.629Z,25.63
2023-04-03T22:42:16.567Z,25.61
2023-04-03T22:44:16.630Z,25.61
2023-04-03T22:46:16.610Z,25.63
2023-04-03T22:48:16.621Z,25.56
2023-04-03T22:50:16.667Z,25.55
2023-04-03T22:52:16.590Z,25.63
2023-04-03T22:54:16.630Z,25.59
2023-04-03T22:56:16.699Z,25.65
2023-04-03T22:58:16.603Z,25.63
2023-04-03T23:00:16.611Z,25.61
2023-04-03T23:02:16.603Z,25.60
2023-04-03T23:04:16.679Z,25.62
2023-04-03T23:06:16.662Z,25.60
2023-04-03T23:08:16.575Z,25.63
2023-04-03T23:10:16.674Z,25.65
2023-04-03T23:12:16.602Z,25.62
2023-04-03T23:14:16.668Z,25.60
2023-04-03T23:16:16.634Z,25.59
2023-04-03T23:18:16.616Z,25.56
2023-04-03T23:20:16.631Z,25.57
2023-04-03T23:22:16.575Z,25.65
2023-04-03T23:24:16.604Z,25.57
2023-04-03T23:26:16.589Z,25.65
2023-04-03T23:28:16.659Z,25.57
2023-04-03T23:30:16.671Z,25.58
2023-04-03T23:32:16.752Z,25.65
2023-04-03T23:34:16.646Z,25.63
2023-04-03T23:36:16.701Z,25.58
2023-04-03T23:38:16.560Z,25.60
2023-04-03T23:40:16.706Z,25.61
2023-04-03T23:42:16.618Z,25.58
2023-04-03T23:44:16.650Z,25.58
2023-04-03T23:46:16.701Z,25.56
2023-04-03T23:48:16.766Z,25.65
2023-04-03T23:50:16.719Z,25.61
2023-04-03T23:52:16.582Z,25.61
2023-04-03T23:54:16.654Z,25.60
2023-04-03T23:56:16.664Z,25.58
2023-04-03T23:58:16.741Z,25.60
